Monday, July 23, 2018, 1:56 AM EDT
Back to Local

KLNS, Lancaster Airport

Location: Lititz, PA, United States Lat: 40.117
Local Time: 1:56 AM EDT ( 5:56 GMT) Lon: -76.3
Time Zone: US/Eastern Elev: 403 ft

Show me the last for .
Show Decoded

2018-07-23 01:33 METAR KLNS 230533Z AUTO 11003KT 6SM -RA BR FEW006 BKN010 OVC015 23/23 A2993 RMK
                 AO2 LTG DSNT SW RAB21 CIG 008V013 P0000 T02330228 =
2018-07-23 01:00 METAR KLNS 230500Z AUTO 07004KT 9SM BKN010 OVC014 23/22 A2995 RMK AO2 CIG
                 008V011 T02280222 =
2018-07-23 00:53 METAR KLNS 230453Z AUTO 07004KT 9SM BKN008 BKN016 OVC027 22/22 A2995 RMK AO2 LTG
                 DSNT W CIG 007V012 SLP137 T02220222 402610183 =
2018-07-22 23:53 METAR KLNS 230353Z AUTO 08005KT 10SM OVC008 22/21 A2995 RMK AO2 LTG DSNT W
                 SLP138 T02170211 =
2018-07-22 23:36 METAR KLNS 230336Z AUTO 07006KT 10SM BKN009 BKN024 OVC039 22/21 A2994 RMK AO2
                 CIG 008V015 T02170211 =
2018-07-22 22:53 METAR KLNS 230253Z 08004KT 10SM BKN022 OVC027 22/21 A2994 RMK AO2 SLP136 60013
                 T02170211 51019 =
2018-07-22 22:35 METAR KLNS 230235Z 09006KT 10SM BKN025 BKN120 22/21 A2994 RMK AO2 T02170211 =
2018-07-22 21:53 METAR KLNS 230153Z 14004KT 10SM FEW120 22/21 A2994 RMK AO2 LTG DSNT NE RAE25
                 TSE0058 SLP136 P0002 T02170211 =
2018-07-22 21:04 METAR KLNS 230104Z 14008KT 10SM -RA FEW014 SCT090 BKN110 23/22 A2991 RMK AO2 LTG
                 DSNT ALQDS TSE0058 P0001 T02330222 =
2018-07-22 20:53 METAR KLNS 230053Z 12007G17KT 5SM TSRA BR FEW014 BKN075 OVC110 23/23 A2989 RMK
                 AO2 LTG DSNT ALQDS RAB04 TSB16 PRESFR SLP120 P0011 T02330228 =
2018-07-22 20:16 METAR KLNS 230016Z 11005KT 7SM -TSRA FEW025 SCT048 BKN080 23/22 A2990 RMK AO2
                 LTG DSNT SE-SW RAB04 TSB16 P0001 T02330222 =
2018-07-22 19:53 METAR KLNS 222353Z 07004KT 10SM CLR 23/22 A2988 RMK AO2 LTG DSNT SE SLP117 60104
                 T02330217 10261 20211 53004 =
2018-07-22 18:53 METAR KLNS 222253Z 10006KT 10SM FEW037 23/22 A2988 RMK AO2 LTG DSNT NE SLP117
                 T02280217 =
2018-07-22 18:01 METAR KLNS 222201Z 11003KT 10SM FEW065 FEW110 22/21 A2987 RMK AO2 LTG DSNT NE-SE
                 T02170211 =
2018-07-22 17:53 METAR KLNS 222153Z 08006KT 10SM VCTS FEW065 FEW080 SCT110 22/21 A2987 RMK AO2
                 LTG DSNT N-SE RAE53 TSB09E35 SLP113 LTG DSNT SE AND S THUDERSTORMS MOVING SOUTH
                 TO NORTH P0103 T02170211 =
2018-07-22 17:42 METAR KLNS 222142Z 06004KT 8SM VCTS -RA SCT019 BKN065 OVC110 22/21 A2988 RMK AO2
                 LTG DSNT SE TSB09E35 LTG DSNT SE AND S THUDERSTORMS MOVING SOUTH TO NORTH P0103
                 T02170206 =
2018-07-22 17:35 METAR KLNS 222135Z 12007KT 6SM VCTS -RA BR BKN015 OVC110 22/21 A2988 RMK AO2 LTG
                 DSNT NE AND SE TSB09E35 LTG DSNT SE AND S THUDERSTORMS MOVING SOUTH TO NORTH
                 P0103 T02170206 =
2018-07-22 17:32 METAR KLNS 222132Z 11006KT 2 1/2SM -TSRA BR BKN017 OVC110 21/20 A2987 RMK AO2
                 LTG DSNT NE AND SE TSB09 LTG DSNT SE AND S THUDERSTORMS MOVING SOUTH TO NORTH
                 P0102 T02110200 =
2018-07-22 17:26 METAR KLNS 222126Z VRB04KT 1/2SM +TSRA FG BKN017 BKN034 OVC110 21/19 A2987 RMK
                 AO2 LTG DSNT NE AND SE TSB09 PRESFR LTG DSNT SE AND S THUDERSTORMS MOVING SOUTH
                 TO NORTH P0102 T02110194 =
2018-07-22 17:15 METAR KLNS 222115Z 13009G19KT 1/4SM +TSRA FG BKN014 BKN034 OVC100 23/22 A2991
                 RMK AO2 LTG DSNT NE-S TSB09 PRESRR LTG DSNT SE AND S THUDERSTORMS MOVING SOUTH
                 TO NORTH P0068 T02280217 =
2018-07-22 17:10 METAR KLNS 222110Z 19009KT 3/4SM +TSRA BR SCT018 BKN034 OVC100 24/23 A2990 RMK
                 AO2 LTG DSNT NE-S TSB09 PRESRR LTG DSNT SE AND S THUDERSTORMS MOVING SOUTH TO
                 NORTH P0025 T02440233 =
2018-07-22 17:07 METAR KLNS 222107Z 19009KT 1 1/2SM VCTS +RA BR SCT020 BKN034 OVC100 25/23 A2990
                 RMK AO2 LTG DSNT SE AND S PRESRR P0014 T02500228 =
2018-07-22 17:01 METAR KLNS 222101Z 18005KT 5SM VCTS -RA BR FEW022 SCT034 BKN048 25/23 A2988 RMK
                 AO2 LTG DSNT SE P0002 T02500228 =
2018-07-22 16:53 METAR KLNS 222053Z 14005KT 10SM -RA SCT027 SCT070 BKN100 25/23 A2987 RMK AO2 LTG
                 DSNT SE AND S RAB48 SLP113 P0000 60001 T02500228 55002 =
2018-07-22 16:48 METAR KLNS 222048Z 13008KT 10SM -RA SCT022 SCT032 BKN070 26/22 A2987 RMK AO2 LTG
                 DSNT SE AND S RAB48 P0000 =
2018-07-22 16:33 METAR KLNS 222033Z 11007KT 10SM SCT023 BKN029 26/23 A2987 RMK AO2 LTG DSNT S
                 T02610228 =
2018-07-22 15:53 METAR KLNS 221953Z 08003KT 10SM SCT110 25/22 A2986 RMK AO2 RAE24 SLP108 P0000
                 T02500217 =
2018-07-22 14:53 METAR KLNS 221853Z 13008KT 10SM -RA FEW013 OVC100 24/22 A2988 RMK AO2 RAE00B17
                 SLP115 P0001 T02390217 =
2018-07-22 13:53 METAR KLNS 221753Z 13011KT 10SM -RA FEW070 OVC095 24/21 A2988 RMK AO2 RAB39
                 SLP117 P0000 60000 T02440206 10261 20194 57001 =
2018-07-22 12:53 METAR KLNS 221653Z 13011KT 10SM SCT020 BKN070 BKN090 26/21 A2988 RMK AO2 SLP117
                 T02560206 =
2018-07-22 11:53 METAR KLNS 221553Z 16007KT 10SM SCT020 BKN050 24/19 A2988 RMK AO2 RAB32E44
                 SLP117 P0000 T02440194 =
2018-07-22 11:51 METAR KLNS 221551Z 16007KT 10SM SCT020 BKN050 24/19 A2988 RMK AO2 RAB32E44 P0000
                 =
2018-07-22 10:53 METAR KLNS 221453Z 17009KT 10SM OVC018 22/19 A2988 RMK AO2 SLP115 T02220189
                 51029 =
2018-07-22 09:53 METAR KLNS 221353Z 16010KT 10SM OVC015 22/19 A2986 RMK AO2 SLP109 T02170189 =
2018-07-22 09:34 METAR KLNS 221334Z 17008KT 10SM FEW009 OVC015 21/18 A2985 RMK AO2 T02110183 =
2018-07-22 08:53 METAR KLNS 221253Z 17006KT 10SM OVC013 21/19 A2983 RMK AO2 SLP099 T02060189 =
2018-07-22 08:24 METAR KLNS 221224Z 16006KT 10SM OVC011 20/19 A2981 RMK AO2 T02000189 =
2018-07-22 07:53 METAR KLNS 221153Z 20006KT 10SM OVC006 19/19 A2979 RMK AO2 CIG 005V011 SLP087
                 60007 70144 T01940189 10228 20183 51043 =
2018-07-22 07:14 METAR KLNS 221114Z 18005KT 10SM BKN008 OVC014 19/19 A2977 RMK AO2 T01940189 =
2018-07-22 06:53 METAR KLNS 221053Z 18005KT 10SM SCT006 BKN014 OVC019 19/19 A2976 RMK AO2 SLP074
                 T01940189 =
2018-07-22 06:32 METAR KLNS 221032Z 18006KT 7SM OVC005 19/19 A2975 RMK AO2 T01890189 =
2018-07-22 06:21 METAR KLNS 221021Z 17005KT 2SM BR OVC006 19/18 A2974 RMK AO2 T01890183 =
2018-07-22 05:53 METAR KLNS 220953Z 20005KT 4SM BR BKN009 OVC013 19/18 A2972 RMK AO2 CIG 007V010
                 SLP061 T01890183 =
2018-07-22 04:53 METAR KLNS 220853Z AUTO 22007KT 10SM OVC006 18/18 A2966 RMK AO2 SLP043 60007
                 T01830178 53025 =
2018-07-22 03:53 METAR KLNS 220753Z AUTO 25009KT 7SM OVC005 19/19 A2961 RMK AO2 WSHFT 0735
                 RAE09B29E52 PRESRR SLP023 P0003 T01940189 =
2018-07-22 03:38 METAR KLNS 220738Z AUTO 22011G16KT 2 1/2SM -RA BR BKN005 OVC010 22/22 A2959 RMK
                 AO2 VIS 1 1/2V3 RAE09B29 P0002 T02220217 =
2018-07-22 02:53 METAR KLNS 220653Z AUTO 10010KT 4SM -RA BR BKN006 OVC013 22/21 A2956 RMK AO2
                 SLP009 P0004 T02170211 =
2018-07-22 02:42 METAR KLNS 220642Z AUTO 08011KT 3SM -RA BR BKN006 OVC012 21/21 A2956 RMK AO2
                 P0004 T02110206 =
2018-07-22 02:23 METAR KLNS 220623Z AUTO 05007KT 2SM -RA BR OVC008 19/19 A2957 RMK AO2 P0003
                 T01940194 =
2018-07-22 02:15 METAR KLNS 220615Z AUTO 09005KT 3SM -RA BR BKN008 OVC014 20/19 A2958 RMK AO2
                 P0002 T02000194 =

Support USWX by starting your Amazon purchase here.